createdAt,value
2019-05-18T00:00:37.014Z,84.25
2019-05-18T00:03:05.264Z,84.43
2019-05-18T00:05:33.411Z,84.55
2019-05-18T00:08:01.659Z,84.73
2019-05-18T00:10:29.959Z,85.03
2019-05-18T00:12:57.483Z,85.02
2019-05-18T00:15:26.237Z,83.94
2019-05-18T00:17:54.561Z,83.82
2019-05-18T00:20:22.928Z,84.23
2019-05-18T00:22:51.513Z,84.96
2019-05-18T00:25:19.749Z,84.88
2019-05-18T00:27:48.038Z,84.92
2019-05-18T00:30:16.022Z,85.12
2019-05-18T00:32:44.683Z,84.93
2019-05-18T00:35:16.639Z,85.15
2019-05-18T00:37:44.545Z,85.39
2019-05-18T00:40:12.411Z,85.61
2019-05-18T00:42:41.091Z,85.65
2019-05-18T00:45:09.475Z,85.43
2019-05-18T00:47:41.831Z,85.51
2019-05-18T00:50:07.994Z,85.42
2019-05-18T00:52:36.181Z,85.70
2019-05-18T00:55:05.236Z,85.46
2019-05-18T00:57:33.747Z,85.60
2019-05-18T01:00:02.508Z,85.45
2019-05-18T01:02:30.741Z,85.38
2019-05-18T01:04:59.418Z,85.22
2019-05-18T01:07:27.042Z,85.46
2019-05-18T01:09:54.970Z,85.78
2019-05-18T01:12:23.132Z,85.90
2019-05-18T01:14:51.650Z,85.95
2019-05-18T01:17:19.918Z,86.12
2019-05-18T01:19:48.092Z,86.26
2019-05-18T01:22:18.500Z,86.50
2019-05-18T01:24:46.411Z,86.22
2019-05-18T01:27:14.676Z,86.08
2019-05-18T01:29:43.274Z,86.10
2019-05-18T01:32:11.506Z,86.35
2019-05-18T01:34:40.073Z,86.32
2019-05-18T01:37:08.481Z,86.39
2019-05-18T01:39:36.792Z,86.56
2019-05-18T01:42:05.080Z,86.55
2019-05-18T01:44:32.970Z,86.46
2019-05-18T01:47:01.743Z,86.48
2019-05-18T01:49:30.360Z,86.32
2019-05-18T01:51:58.928Z,86.25
2019-05-18T01:54:27.417Z,86.51
2019-05-18T01:56:55.687Z,86.78
2019-05-18T01:59:23.986Z,86.99
2019-05-18T02:01:52.140Z,86.57
2019-05-18T02:04:20.421Z,86.52
2019-05-18T02:06:48.703Z,86.84
2019-05-18T02:09:17.003Z,86.87
2019-05-18T02:11:45.668Z,87.50
2019-05-18T02:14:14.253Z,87.09
2019-05-18T02:16:42.462Z,86.84
2019-05-18T02:19:10.647Z,86.09
2019-05-18T02:21:39.334Z,86.20
2019-05-18T02:24:07.857Z,87.07
2019-05-18T02:26:35.720Z,87.09
2019-05-18T02:29:04.099Z,87.31
2019-05-18T02:31:32.731Z,87.95
2019-05-18T02:34:00.891Z,88.31
2019-05-18T02:36:28.805Z,88.29
2019-05-18T02:38:57.317Z,88.47
2019-05-18T02:41:25.546Z,88.48
2019-05-18T02:43:53.848Z,88.24
2019-05-18T02:46:22.470Z,88.44
2019-05-18T02:48:51.049Z,88.60
2019-05-18T02:51:19.275Z,88.89
2019-05-18T02:53:47.528Z,88.80
2019-05-18T02:56:16.100Z,89.36
2019-05-18T02:58:43.581Z,89.63
2019-05-18T03:01:11.479Z,89.39
2019-05-18T03:03:40.117Z,89.29
2019-05-18T03:06:08.822Z,89.39
2019-05-18T03:08:37.082Z,89.28
2019-05-18T03:11:05.392Z,89.57
2019-05-18T03:13:33.667Z,89.38
2019-05-18T03:16:01.855Z,89.17
2019-05-18T03:18:30.139Z,89.30
2019-05-18T03:20:58.743Z,89.22
2019-05-18T03:23:27.001Z,89.50
2019-05-18T03:25:55.191Z,90.21
2019-05-18T03:28:23.462Z,90.36
2019-05-18T03:30:52.188Z,90.11
2019-05-18T03:33:20.430Z,89.85
2019-05-18T03:35:48.691Z,90.06
2019-05-18T03:38:17.298Z,90.38
2019-05-18T03:40:45.807Z,90.38
2019-05-18T03:43:14.399Z,90.59
2019-05-18T03:45:42.769Z,90.72
2019-05-18T03:48:10.983Z,90.53
2019-05-18T03:50:39.179Z,90.45
2019-05-18T03:53:07.830Z,90.32
2019-05-18T03:55:36.332Z,90.39
2019-05-18T03:58:04.185Z,90.58
2019-05-18T04:00:32.771Z,90.66
2019-05-18T04:03:00.848Z,90.73
2019-05-18T04:05:29.638Z,90.64
2019-05-18T04:07:57.889Z,90.91
2019-05-18T04:10:26.234Z,91.08
2019-05-18T04:12:53.845Z,91.12
2019-05-18T04:15:22.233Z,90.80
2019-05-18T04:17:50.853Z,90.44
2019-05-18T04:20:19.013Z,90.36
2019-05-18T04:22:46.995Z,90.41
2019-05-18T04:25:14.948Z,90.56
2019-05-18T04:27:43.189Z,90.71
2019-05-18T04:30:11.424Z,90.61
2019-05-18T04:32:40.060Z,90.74
2019-05-18T04:35:07.913Z,90.66
2019-05-18T04:37:36.080Z,90.64
2019-05-18T04:40:05.081Z,90.67
2019-05-18T04:42:33.275Z,90.71
2019-05-18T04:45:01.529Z,90.83
2019-05-18T04:47:30.123Z,91.02
2019-05-18T04:50:05.324Z,91.17
2019-05-18T04:52:29.280Z,91.54
2019-05-18T04:54:57.619Z,92.06
2019-05-18T04:57:26.217Z,92.17
2019-05-18T04:59:54.857Z,91.82
2019-05-18T05:02:22.953Z,91.98
2019-05-18T05:04:53.908Z,91.92
2019-05-18T05:07:21.172Z,92.03
2019-05-18T05:09:49.630Z,92.27
2019-05-18T05:12:18.016Z,92.22
2019-05-18T05:14:46.230Z,92.30
2019-05-18T05:17:14.454Z,92.03
2019-05-18T05:19:45.270Z,91.62
2019-05-18T05:22:13.666Z,91.35
2019-05-18T05:24:42.218Z,91.28
2019-05-18T05:27:10.513Z,91.50
2019-05-18T05:29:38.798Z,91.60
2019-05-18T05:32:07.024Z,91.04
2019-05-18T05:34:35.159Z,90.70
2019-05-18T05:37:03.510Z,90.18
2019-05-18T05:39:31.730Z,89.56
2019-05-18T05:42:00.299Z,89.51
2019-05-18T05:44:28.605Z,89.20
2019-05-18T05:46:56.830Z,88.82
2019-05-18T05:49:24.347Z,88.55
2019-05-18T05:51:52.573Z,87.62
2019-05-18T05:54:21.138Z,87.38
2019-05-18T05:56:49.098Z,86.87
2019-05-18T05:59:16.632Z,86.96
2019-05-18T06:01:45.344Z,86.87
2019-05-18T06:04:13.218Z,87.03
2019-05-18T06:06:41.378Z,86.99
2019-05-18T06:09:10.083Z,86.38
2019-05-18T06:11:37.958Z,85.95
2019-05-18T06:14:06.653Z,86.56
2019-05-18T06:16:35.230Z,86.37
2019-05-18T06:19:03.765Z,85.47
2019-05-18T06:21:32.318Z,85.02
2019-05-18T06:24:01.042Z,84.71
2019-05-18T06:26:29.869Z,84.64
2019-05-18T06:28:58.556Z,84.60
2019-05-18T06:31:26.469Z,84.66
2019-05-18T06:33:54.743Z,84.28
2019-05-18T06:36:23.268Z,83.58
2019-05-18T06:38:51.609Z,83.00
2019-05-18T06:41:19.950Z,83.67
2019-05-18T06:43:48.007Z,83.53
2019-05-18T06:46:16.259Z,82.96
2019-05-18T06:48:44.538Z,82.75
2019-05-18T06:51:13.339Z,83.13
2019-05-18T06:53:41.848Z,83.23
2019-05-18T06:56:10.708Z,82.83
2019-05-18T06:58:40.564Z,81.60
2019-05-18T07:01:10.178Z,81.15
2019-05-18T07:03:38.549Z,81.44
2019-05-18T07:06:08.143Z,79.75
2019-05-18T07:08:36.454Z,81.59
2019-05-18T07:11:04.389Z,80.03
2019-05-18T07:13:32.252Z,79.93
2019-05-18T07:16:00.802Z,79.56
2019-05-18T07:18:29.039Z,80.23
2019-05-18T07:20:57.579Z,79.64
2019-05-18T07:23:26.117Z,79.35
2019-05-18T07:25:54.612Z,79.69
2019-05-18T07:28:23.292Z,80.33
2019-05-18T07:30:51.533Z,80.55
2019-05-18T07:33:20.268Z,80.25
2019-05-18T07:35:48.555Z,79.97
2019-05-18T07:38:16.477Z,77.25
2019-05-18T07:40:44.819Z,74.32
2019-05-18T07:43:13.407Z,73.97
2019-05-18T07:45:41.252Z,72.24
2019-05-18T07:48:09.757Z,73.25
2019-05-18T07:50:38.387Z,70.75
2019-05-18T07:53:06.977Z,71.12
2019-05-18T07:55:35.762Z,72.91
2019-05-18T07:58:04.597Z,72.17
2019-05-18T08:00:32.791Z,70.24
2019-05-18T08:03:00.418Z,70.04
2019-05-18T08:05:28.723Z,70.87
2019-05-18T08:07:56.720Z,72.54
2019-05-18T08:10:37.423Z,72.67
2019-05-18T08:13:06.019Z,72.02
2019-05-18T08:15:34.022Z,72.46
2019-05-18T08:18:01.996Z,72.05
2019-05-18T08:20:30.741Z,70.84
2019-05-18T08:22:59.199Z,70.11
2019-05-18T08:25:27.424Z,70.21
2019-05-18T08:27:55.778Z,70.72
2019-05-18T08:30:23.729Z,68.20
2019-05-18T08:32:51.774Z,69.05
2019-05-18T08:35:20.062Z,66.77
2019-05-18T08:37:48.304Z,65.67
2019-05-18T08:40:16.673Z,64.70
2019-05-18T08:42:44.995Z,66.48
2019-05-18T08:45:13.855Z,68.39
2019-05-18T08:47:41.747Z,65.78
2019-05-18T08:50:10.454Z,67.45
2019-05-18T08:52:38.963Z,67.46
2019-05-18T08:55:07.601Z,66.92
2019-05-18T08:57:35.943Z,65.84
2019-05-18T09:00:04.353Z,62.22
2019-05-18T09:02:32.938Z,64.30
2019-05-18T09:05:04.683Z,65.79
2019-05-18T09:07:31.863Z,64.48
2019-05-18T09:10:00.146Z,63.26
2019-05-18T09:12:28.707Z,63.63
2019-05-18T09:14:56.626Z,64.12
2019-05-18T09:17:24.911Z,61.64
2019-05-18T09:19:53.182Z,63.92
2019-05-18T09:22:23.274Z,63.51
2019-05-18T09:24:51.764Z,59.28
2019-05-18T09:27:20.548Z,64.95
2019-05-18T09:29:48.787Z,63.06
2019-05-18T09:32:17.083Z,63.87
2019-05-18T09:34:45.109Z,60.57
2019-05-18T09:37:13.005Z,63.53
2019-05-18T09:39:41.282Z,63.19
2019-05-18T09:42:08.912Z,62.39
2019-05-18T09:44:37.467Z,62.33
2019-05-18T09:47:05.503Z,64.29
2019-05-18T09:49:34.101Z,61.68
2019-05-18T09:52:02.633Z,62.03
2019-05-18T09:54:30.787Z,62.18
2019-05-18T09:56:59.050Z,59.61
2019-05-18T09:59:26.912Z,60.28
2019-05-18T10:01:54.888Z,60.94
2019-05-18T10:04:23.525Z,58.18
2019-05-18T10:06:52.133Z,61.58
2019-05-18T10:09:20.772Z,60.63
2019-05-18T10:11:49.180Z,61.53
2019-05-18T10:14:17.829Z,57.07
2019-05-18T10:16:46.460Z,59.77
2019-05-18T10:19:14.774Z,57.38
2019-05-18T10:21:43.173Z,55.34
2019-05-18T10:24:11.704Z,57.66
2019-05-18T10:26:39.943Z,57.93
2019-05-18T10:29:07.531Z,56.00
2019-05-18T10:31:35.742Z,57.18
2019-05-18T10:34:03.699Z,55.89
2019-05-18T10:36:32.305Z,55.27
2019-05-18T10:39:00.823Z,57.06
2019-05-18T10:41:29.443Z,51.44
2019-05-18T10:43:57.691Z,54.80
2019-05-18T10:46:25.615Z,53.73
2019-05-18T10:48:53.888Z,54.17
2019-05-18T10:51:21.804Z,54.39
2019-05-18T10:53:49.694Z,54.32
2019-05-18T10:56:17.996Z,52.58
2019-05-18T10:58:46.330Z,52.85
2019-05-18T11:01:14.988Z,54.12
2019-05-18T11:03:43.783Z,57.01
2019-05-18T11:06:12.063Z,56.17
2019-05-18T11:08:40.426Z,52.61
2019-05-18T11:11:09.068Z,56.66
2019-05-18T11:13:37.360Z,57.69
2019-05-18T11:16:06.071Z,58.61
2019-05-18T11:18:33.968Z,60.93
2019-05-18T11:21:02.274Z,60.05
2019-05-18T11:23:42.835Z,62.63
2019-05-18T11:26:00.582Z,63.70
2019-05-18T11:28:28.549Z,63.58
2019-05-18T11:30:56.433Z,62.45
2019-05-18T11:33:24.703Z,63.71
2019-05-18T11:35:52.973Z,63.18
2019-05-18T11:38:21.263Z,63.62
2019-05-18T11:40:49.969Z,61.24
2019-05-18T11:43:18.450Z,62.22
2019-05-18T11:45:46.732Z,63.02
2019-05-18T11:48:15.371Z,64.33
2019-05-18T11:53:10.562Z,72.60
2019-05-18T11:55:39.154Z,74.84
2019-05-18T11:58:07.041Z,77.94
2019-05-18T12:00:35.188Z,79.43
2019-05-18T12:03:03.442Z,82.16
2019-05-18T12:05:31.719Z,83.31
2019-05-18T12:08:00.496Z,85.00
2019-05-18T12:10:28.058Z,84.93
2019-05-18T12:12:56.345Z,84.79
2019-05-18T12:15:25.036Z,87.24
2019-05-18T12:17:53.304Z,88.94
2019-05-18T12:20:21.464Z,88.52
2019-05-18T12:22:50.078Z,84.07
2019-05-18T12:25:19.345Z,83.64
2019-05-18T12:27:47.726Z,83.36
2019-05-18T12:30:15.665Z,83.17
2019-05-18T12:32:44.076Z,84.52
2019-05-18T12:35:12.370Z,85.67
2019-05-18T12:37:40.977Z,86.87
2019-05-18T12:40:11.357Z,89.29
2019-05-18T12:42:40.008Z,89.10
2019-05-18T12:45:08.581Z,85.83
2019-05-18T12:47:36.799Z,80.53
2019-05-18T12:50:05.547Z,82.69
2019-05-18T12:52:33.751Z,85.83
2019-05-18T12:55:02.475Z,85.85
2019-05-18T12:57:31.098Z,86.44
2019-05-18T12:59:58.979Z,87.24
2019-05-18T13:02:27.268Z,85.75
2019-05-18T13:04:55.867Z,88.27
2019-05-18T13:07:23.730Z,86.81
2019-05-18T13:09:52.008Z,86.32
2019-05-18T13:12:20.681Z,79.10
2019-05-18T13:14:48.572Z,83.09
2019-05-18T13:17:17.257Z,85.38
2019-05-18T13:19:45.543Z,86.84
2019-05-18T13:22:13.824Z,87.35
2019-05-18T13:24:45.383Z,85.45
2019-05-18T13:27:12.979Z,87.38
2019-05-18T13:29:41.106Z,87.68
2019-05-18T13:32:09.308Z,88.16
2019-05-18T13:34:37.904Z,86.69
2019-05-18T13:37:06.194Z,87.71
2019-05-18T13:39:34.873Z,87.86
2019-05-18T13:42:03.033Z,89.13
2019-05-18T13:44:31.225Z,90.04
2019-05-18T13:46:59.519Z,89.71
2019-05-18T13:49:28.118Z,89.48
2019-05-18T13:51:56.335Z,89.07
2019-05-18T13:54:24.554Z,89.49
2019-05-18T13:56:52.738Z,83.16
2019-05-18T13:59:21.534Z,79.02
2019-05-18T14:01:49.748Z,79.80
2019-05-18T14:04:18.467Z,83.69
2019-05-18T14:06:47.068Z,84.70
2019-05-18T14:09:23.899Z,84.45
2019-05-18T14:12:02.044Z,86.34
2019-05-18T14:14:30.864Z,87.74
2019-05-18T14:17:00.101Z,88.64
2019-05-18T14:19:29.136Z,86.64
2019-05-18T14:21:57.148Z,88.52
2019-05-18T14:24:26.162Z,90.04
2019-05-18T14:26:54.338Z,91.06
2019-05-18T14:29:22.214Z,92.13
2019-05-18T14:31:50.198Z,91.66
2019-05-18T14:34:18.702Z,90.83
2019-05-18T14:36:47.097Z,91.67
2019-05-18T14:39:15.344Z,91.77
2019-05-18T14:41:43.936Z,89.30
2019-05-18T14:44:12.266Z,90.00
2019-05-18T14:46:39.800Z,91.48
2019-05-18T14:49:08.433Z,92.28
2019-05-18T14:51:37.050Z,92.55
2019-05-18T14:54:05.653Z,91.49
2019-05-18T14:56:34.370Z,91.53
2019-05-18T14:59:02.773Z,90.98
2019-05-18T15:01:31.209Z,91.21
2019-05-18T15:03:59.569Z,90.58
2019-05-18T15:06:27.072Z,89.91
2019-05-18T15:08:55.254Z,90.38
2019-05-18T15:11:23.197Z,90.06
2019-05-18T15:13:51.559Z,89.48
2019-05-18T15:16:19.567Z,90.05
2019-05-18T15:18:48.270Z,90.76
2019-05-18T15:21:16.942Z,89.87
2019-05-18T15:23:44.503Z,89.84
2019-05-18T15:26:11.695Z,89.73
2019-05-18T15:28:40.391Z,90.19
2019-05-18T15:31:09.065Z,90.53
2019-05-18T15:33:36.858Z,90.61
2019-05-18T15:36:05.343Z,89.46
2019-05-18T15:38:34.130Z,89.77
2019-05-18T15:41:02.927Z,90.00
2019-05-18T15:43:30.771Z,90.03
2019-05-18T15:45:58.696Z,89.95
2019-05-18T15:48:26.738Z,89.39
2019-05-18T15:50:55.284Z,89.33
2019-05-18T15:53:23.523Z,89.62
2019-05-18T15:56:04.856Z,89.00
2019-05-18T15:58:20.937Z,88.78
2019-05-18T16:00:48.746Z,88.28
2019-05-18T16:03:17.352Z,88.64
2019-05-18T16:05:45.599Z,88.45
2019-05-18T16:08:13.922Z,88.72
2019-05-18T16:10:42.513Z,87.96
2019-05-18T16:13:11.018Z,88.46
2019-05-18T16:15:39.295Z,89.10
2019-05-18T16:18:08.638Z,89.34
2019-05-18T16:20:37.483Z,87.16
2019-05-18T16:23:05.386Z,85.55
2019-05-18T16:25:33.658Z,87.27
2019-05-18T16:28:01.657Z,85.76
2019-05-18T16:30:30.196Z,87.31
2019-05-18T16:32:58.758Z,87.10
2019-05-18T16:35:27.331Z,86.60
2019-05-18T16:37:55.939Z,87.10
2019-05-18T16:40:24.554Z,85.70
2019-05-18T16:42:52.534Z,84.51
2019-05-18T16:45:21.139Z,85.45
2019-05-18T16:47:50.362Z,86.85
2019-05-18T16:50:20.070Z,87.88
2019-05-18T16:52:51.135Z,88.62
2019-05-18T16:55:20.042Z,89.71
2019-05-18T16:58:01.795Z,90.10
2019-05-18T17:00:30.269Z,90.42
2019-05-18T17:02:58.282Z,90.54
2019-05-18T17:05:26.443Z,89.94
2019-05-18T17:08:01.111Z,89.63
2019-05-18T17:10:29.064Z,90.09
2019-05-18T17:12:56.989Z,90.30
2019-05-18T17:15:25.234Z,90.50
2019-05-18T17:17:53.278Z,90.96
2019-05-18T17:20:21.993Z,91.60
2019-05-18T17:22:50.071Z,91.58
2019-05-18T17:25:18.356Z,90.64
2019-05-18T17:27:46.658Z,90.78
2019-05-18T17:30:14.971Z,91.26
2019-05-18T17:32:43.185Z,92.04
2019-05-18T17:35:11.203Z,92.48
2019-05-18T17:37:39.782Z,92.59
2019-05-18T17:40:09.522Z,92.71
2019-05-18T17:42:37.985Z,92.89
2019-05-18T17:45:06.384Z,93.06
2019-05-18T17:47:34.858Z,93.28
2019-05-18T17:50:02.959Z,93.63
2019-05-18T17:52:31.519Z,93.26
2019-05-18T17:54:59.803Z,93.03
2019-05-18T17:57:28.499Z,92.51
2019-05-18T17:59:56.780Z,92.33
2019-05-18T18:02:25.282Z,92.62
2019-05-18T18:04:54.329Z,92.99
2019-05-18T18:07:22.683Z,93.15
2019-05-18T18:09:51.356Z,93.28
2019-05-18T18:12:19.939Z,92.99
2019-05-18T18:14:48.167Z,92.83
2019-05-18T18:17:17.839Z,92.58
2019-05-18T18:19:46.463Z,92.42
2019-05-18T18:22:14.841Z,92.30
2019-05-18T18:24:43.379Z,92.48
2019-05-18T18:27:24.166Z,92.83
2019-05-18T18:29:41.745Z,92.73
2019-05-18T18:32:10.289Z,92.74
2019-05-18T18:34:38.838Z,92.67
2019-05-18T18:37:06.419Z,92.04
2019-05-18T18:39:34.736Z,91.82
2019-05-18T18:42:02.698Z,91.88
2019-05-18T18:44:31.296Z,91.89
2019-05-18T18:46:59.641Z,92.18
2019-05-18T18:49:28.161Z,92.43
2019-05-18T18:51:56.119Z,92.80
2019-05-18T18:54:24.504Z,93.18
2019-05-18T18:56:52.710Z,93.30
2019-05-18T18:59:21.530Z,93.35
2019-05-18T19:01:49.830Z,93.43
2019-05-18T19:04:17.858Z,93.55
2019-05-18T19:06:46.395Z,93.67
2019-05-18T19:09:14.813Z,93.78
2019-05-18T19:11:43.203Z,93.49
2019-05-18T19:14:11.508Z,93.39
2019-05-18T19:16:40.129Z,93.39
2019-05-18T19:19:08.554Z,93.49
2019-05-18T19:21:37.513Z,93.52
2019-05-18T19:24:05.433Z,93.53
2019-05-18T19:26:33.713Z,93.62
2019-05-18T19:29:01.634Z,93.82
2019-05-18T19:31:30.066Z,94.01
2019-05-18T19:33:58.854Z,94.24
2019-05-18T19:36:27.166Z,94.34
2019-05-18T19:38:55.323Z,94.47
2019-05-18T19:41:23.528Z,94.61
2019-05-18T19:43:52.085Z,94.71
2019-05-18T19:46:20.796Z,94.50
2019-05-18T19:48:49.472Z,89.34
2019-05-18T19:51:17.986Z,89.04
2019-05-18T19:53:46.257Z,90.12
2019-05-18T19:56:14.691Z,91.32
2019-05-18T19:58:42.208Z,92.20
2019-05-18T20:01:10.579Z,92.79
2019-05-18T20:03:38.858Z,92.96
2019-05-18T20:06:07.140Z,93.25
2019-05-18T20:08:35.739Z,93.61
2019-05-18T20:11:04.031Z,93.94
2019-05-18T20:13:32.294Z,94.24
2019-05-18T20:16:00.219Z,94.50
2019-05-18T20:18:28.814Z,94.65
2019-05-18T20:20:56.349Z,94.86
2019-05-18T20:23:24.980Z,95.14
2019-05-18T20:25:53.220Z,95.22
2019-05-18T20:28:24.076Z,95.38
2019-05-18T20:30:51.716Z,95.54
2019-05-18T20:33:20.181Z,95.60
2019-05-18T20:35:48.935Z,95.72
2019-05-18T20:38:17.194Z,95.81
2019-05-18T20:40:45.139Z,95.93
2019-05-18T20:43:13.715Z,96.02
2019-05-18T20:45:42.089Z,96.25
2019-05-18T20:48:10.394Z,96.29
2019-05-18T20:50:39.087Z,96.40
2019-05-18T20:53:07.353Z,96.57
2019-05-18T20:55:35.751Z,95.96
2019-05-18T20:58:04.461Z,93.82
2019-05-18T21:00:32.819Z,92.65
2019-05-18T21:03:03.166Z,93.05
2019-05-18T21:05:31.546Z,93.69
2019-05-18T21:07:59.489Z,94.23
2019-05-18T21:10:27.904Z,94.37
2019-05-18T21:12:56.599Z,94.20
2019-05-18T21:15:24.531Z,94.17
2019-05-18T21:17:53.128Z,94.38
2019-05-18T21:20:21.533Z,94.54
2019-05-18T21:22:49.722Z,94.55
2019-05-18T21:25:18.107Z,93.94
2019-05-18T21:27:47.164Z,93.47
2019-05-18T21:30:15.549Z,93.53
2019-05-18T21:32:44.031Z,93.48
2019-05-18T21:35:12.487Z,94.15
2019-05-18T21:37:41.305Z,94.00
2019-05-18T21:40:10.108Z,94.21
2019-05-18T21:42:39.166Z,94.11
2019-05-18T21:45:07.950Z,94.48
2019-05-18T21:47:36.873Z,93.65
2019-05-18T21:50:07.826Z,93.69
2019-05-18T21:52:36.590Z,93.67
2019-05-18T21:55:06.057Z,93.80
2019-05-18T21:57:34.365Z,94.36
2019-05-18T22:00:02.653Z,94.74
2019-05-18T22:02:30.594Z,95.03
2019-05-18T22:04:58.859Z,95.33
2019-05-18T22:07:27.187Z,95.57
2019-05-18T22:09:55.566Z,95.74
2019-05-18T22:12:24.170Z,95.94
2019-05-18T22:14:51.704Z,96.03
2019-05-18T22:17:19.980Z,95.88
2019-05-18T22:19:48.313Z,95.17
2019-05-18T22:22:16.882Z,93.75
2019-05-18T22:24:45.602Z,92.61
2019-05-18T22:27:13.738Z,92.19
2019-05-18T22:29:42.034Z,92.36
2019-05-18T22:32:09.804Z,92.56
2019-05-18T22:34:37.999Z,92.92
2019-05-18T22:37:06.308Z,92.72
2019-05-18T22:39:34.959Z,92.86
2019-05-18T22:42:02.934Z,93.62
2019-05-18T22:44:31.149Z,93.91
2019-05-18T22:46:58.984Z,94.45
2019-05-18T22:49:27.241Z,94.76
2019-05-18T22:51:55.446Z,95.10
2019-05-18T22:54:24.133Z,95.31
2019-05-18T22:56:52.416Z,95.49
2019-05-18T22:59:20.682Z,95.66
2019-05-18T23:01:49.390Z,95.91
2019-05-18T23:04:18.088Z,96.08
2019-05-18T23:06:46.661Z,96.13
2019-05-18T23:09:14.657Z,96.30
2019-05-18T23:11:43.235Z,96.35
2019-05-18T23:14:11.524Z,96.37
2019-05-18T23:16:39.888Z,96.33
2019-05-18T23:19:08.421Z,96.47
2019-05-18T23:21:36.664Z,96.50
2019-05-18T23:24:05.345Z,96.55
2019-05-18T23:26:33.973Z,96.56
2019-05-18T23:29:02.166Z,96.62
2019-05-18T23:31:30.113Z,96.65
2019-05-18T23:33:58.399Z,96.76
2019-05-18T23:36:26.613Z,96.99
2019-05-18T23:38:55.396Z,97.09
2019-05-18T23:41:24.053Z,97.13
2019-05-18T23:43:52.646Z,97.20
2019-05-18T23:46:21.230Z,97.24
2019-05-18T23:48:49.668Z,97.37
2019-05-18T23:51:18.375Z,97.46
2019-05-18T23:53:46.210Z,97.57
2019-05-18T23:56:14.464Z,97.69
2019-05-18T23:58:42.491Z,97.82
